Time;durP1;ratioP1;P1;durP2;ratioP2;P2;SDS_P1;SDS_P2;PMS_P1;PMS_P2;Temp;Humidity;BMP_temperature;BMP_pressure;BME280_temperature;BME280_humidity;BME280_pressure;Samples;Min_cycle;Max_cycle;Signal;HPM_P1;HPM_P2
2024/03/06 00:01:40;;;;;;;10.20;7.03;;;3.90;99.90;;;;;;4925755;28;20026;-44
2024/03/06 00:04:05;;;;;;;11.40;7.13;;;3.90;99.90;;;;;;4937733;28;20041;-48
2024/03/06 00:06:31;;;;;;;12.25;7.25;;;3.90;99.90;;;;;;4986218;28;20034;-45
2024/03/06 00:08:56;;;;;;;10.35;6.97;;;3.90;99.90;;;;;;4952523;28;20510;-54
2024/03/06 00:11:22;;;;;;;14.00;7.82;;;4.00;99.90;;;;;;4936546;28;20057;-47
2024/03/06 00:13:48;;;;;;;10.40;7.15;;;3.90;99.90;;;;;;4948717;28;20033;-46
2024/03/06 00:16:14;;;;;;;9.05;6.50;;;4.00;99.90;;;;;;4931178;28;22526;-44
2024/03/06 00:18:40;;;;;;;11.05;6.85;;;4.00;99.90;;;;;;4976106;28;20057;-49
2024/03/06 00:21:06;;;;;;;7.68;5.55;;;3.90;99.90;;;;;;4977972;28;20088;-44
2024/03/06 00:23:32;;;;;;;11.43;7.32;;;3.90;99.90;;;;;;4953705;28;20021;-47
2024/03/06 00:25:58;;;;;;;13.20;7.13;;;3.90;99.90;;;;;;4931599;28;20044;-46
2024/03/06 00:28:24;;;;;;;8.10;6.13;;;3.90;99.90;;;;;;4931965;28;20133;-48
2024/03/06 00:30:49;;;;;;;11.50;6.97;;;3.90;99.90;;;;;;4978809;28;20421;-49
2024/03/06 00:33:15;;;;;;;9.65;6.35;;;3.90;99.90;;;;;;4932854;28;20156;-56
2024/03/06 00:35:41;;;;;;;8.95;6.45;;;3.90;99.90;;;;;;4952921;28;20026;-47
2024/03/06 00:38:07;;;;;;;9.48;6.50;;;3.80;99.90;;;;;;4933639;28;20149;-46
2024/03/06 00:40:32;;;;;;;10.05;6.43;;;3.90;99.90;;;;;;4929161;28;20053;-52
2024/03/06 00:42:58;;;;;;;8.70;5.75;;;3.80;99.90;;;;;;4946615;28;20049;-47
2024/03/06 00:45:24;;;;;;;8.00;6.47;;;3.80;99.90;;;;;;4978770;28;20415;-47
2024/03/06 00:47:50;;;;;;;9.85;5.75;;;3.80;99.90;;;;;;4949415;28;20073;-47
2024/03/06 00:50:16;;;;;;;10.20;5.95;;;3.80;99.90;;;;;;4943599;28;20034;-46
2024/03/06 00:52:43;;;;;;;12.10;5.85;;;3.80;99.90;;;;;;4925267;28;20026;-44
2024/03/06 00:55:09;;;;;;;6.57;5.30;;;3.80;99.90;;;;;;4923407;28;20018;-45
2024/03/06 00:57:35;;;;;;;6.47;5.13;;;3.80;99.90;;;;;;4969353;28;20775;-47
2024/03/06 01:00:06;;;;;;;9.68;5.38;;;3.80;99.90;;;;;;4947700;28;20025;-47
2024/03/06 01:02:31;;;;;;;11.95;5.28;;;3.70;99.90;;;;;;4921886;28;20025;-54
2024/03/06 01:04:57;;;;;;;14.02;6.50;;;3.70;99.90;;;;;;4931392;28;20054;-46
2024/03/06 01:07:22;;;;;;;7.97;5.88;;;3.70;99.90;;;;;;4918301;28;20037;-46
2024/03/06 01:09:48;;;;;;;10.45;6.57;;;3.70;99.90;;;;;;4972260;28;20054;-45
2024/03/06 01:12:14;;;;;;;14.80;6.30;;;3.70;99.90;;;;;;4936995;28;20076;-53
2024/03/06 01:14:39;;;;;;;10.73;5.70;;;3.60;99.90;;;;;;4933520;28;20105;-47
2024/03/06 01:17:06;;;;;;;11.57;5.35;;;3.70;99.90;;;;;;4924282;28;20029;-44
2024/03/06 01:19:31;;;;;;;8.32;5.32;;;3.70;99.90;;;;;;4942468;28;20037;-46
2024/03/06 01:21:57;;;;;;;10.18;5.47;;;3.70;99.90;;;;;;4935072;28;20538;-54
2024/03/06 01:24:22;;;;;;;11.68;5.55;;;3.70;99.90;;;;;;4952040;28;20494;-46
2024/03/06 01:26:48;;;;;;;10.45;5.88;;;3.70;99.90;;;;;;4938713;28;20129;-46
2024/03/06 01:29:13;;;;;;;10.35;5.78;;;3.70;99.90;;;;;;4923763;28;20064;-45
2024/03/06 01:31:39;;;;;;;8.63;5.53;;;3.70;99.90;;;;;;4913456;28;20037;-45
2024/03/06 01:34:04;;;;;;;11.20;6.07;;;3.70;99.90;;;;;;4906525;28;20060;-46
2024/03/06 01:36:30;;;;;;;11.43;6.00;;;3.70;99.90;;;;;;4956382;28;20037;-43
2024/03/06 01:38:56;;;;;;;7.63;5.47;;;3.70;99.90;;;;;;4944261;28;20502;-43
2024/03/06 01:41:21;;;;;;;9.88;6.15;;;3.70;99.90;;;;;;4922696;28;20544;-43
2024/03/06 01:43:47;;;;;;;10.35;6.22;;;3.70;99.90;;;;;;4900845;28;20073;-43
2024/03/06 01:46:12;;;;;;;8.35;6.20;;;3.70;99.90;;;;;;4900105;28;21475;-46
2024/03/06 01:48:38;;;;;;;7.80;5.40;;;3.70;99.90;;;;;;4963158;28;20048;-45
2024/03/06 01:51:05;;;;;;;7.78;5.38;;;3.70;99.90;;;;;;4938300;28;20036;-48
2024/03/06 01:53:33;;;;;;;6.13;4.68;;;3.70;99.90;;;;;;4909700;28;20290;-53
2024/03/06 01:55:59;;;;;;;6.57;5.18;;;3.70;99.90;;;;;;4908838;28;20106;-46
2024/03/06 01:58:26;;;;;;;8.38;5.45;;;3.70;99.90;;;;;;4905457;28;20076;-47
2024/03/06 02:00:52;;;;;;;12.15;6.15;;;3.60;99.90;;;;;;4940022;28;20402;-54
2024/03/06 02:03:21;;;;;;;9.30;5.60;;;3.70;99.90;;;;;;4904625;28;20054;-53
2024/03/06 02:05:49;;;;;;;7.75;5.03;;;3.60;99.90;;;;;;4904648;28;20022;-45
2024/03/06 02:08:16;;;;;;;6.35;5.18;;;3.70;99.90;;;;;;4905665;28;20069;-43
2024/03/06 02:10:41;;;;;;;9.40;5.82;;;3.60;99.90;;;;;;4895926;28;20033;-47
2024/03/06 02:13:11;;;;;;;11.27;5.60;;;3.60;99.90;;;;;;4894009;28;20031;-43
2024/03/06 02:15:37;;;;;;;9.48;5.85;;;3.60;99.90;;;;;;4940965;28;21747;-47
2024/03/06 02:18:06;;;;;;;14.25;5.35;;;3.60;99.90;;;;;;4929535;28;20022;-45
2024/03/06 02:20:31;;;;;;;12.90;6.10;;;3.60;99.90;;;;;;4898569;28;20030;-54
2024/03/06 02:22:57;;;;;;;6.88;5.07;;;3.60;99.90;;;;;;4886571;28;20052;-45
2024/03/06 02:25:22;;;;;;;7.30;6.05;;;3.60;99.90;;;;;;4893381;28;21242;-46
2024/03/06 02:27:48;;;;;;;8.88;6.32;;;3.60;99.90;;;;;;4958308;28;20038;-43
2024/03/06 02:30:14;;;;;;;6.53;5.32;;;3.60;99.90;;;;;;4902359;28;20029;-54
2024/03/06 02:32:39;;;;;;;8.45;5.40;;;3.60;99.90;;;;;;4894247;28;20190;-47
2024/03/06 02:35:08;;;;;;;7.70;5.72;;;3.60;99.90;;;;;;4899159;28;20033;-44
2024/03/06 02:37:34;;;;;;;9.23;6.07;;;3.50;99.90;;;;;;4891017;28;20444;-43
2024/03/06 02:40:01;;;;;;;7.13;5.35;;;3.60;99.90;;;;;;4925022;28;20034;-52
2024/03/06 02:42:28;;;;;;;10.48;6.25;;;3.50;99.90;;;;;;4947720;28;20518;-44
2024/03/06 02:44:54;;;;;;;7.25;5.65;;;3.50;99.90;;;;;;4928417;28;20025;-45
2024/03/06 02:47:19;;;;;;;9.32;6.05;;;3.50;99.90;;;;;;4899704;28;20399;-47
2024/03/06 02:49:45;;;;;;;10.80;7.15;;;3.50;99.90;;;;;;4896367;28;20033;-46
2024/03/06 02:52:11;;;;;;;10.25;6.38;;;3.50;99.90;;;;;;4887204;28;21973;-46
2024/03/06 02:54:36;;;;;;;7.78;6.35;;;3.50;99.90;;;;;;4955257;28;22350;-44
2024/03/06 02:57:02;;;;;;;13.80;6.05;;;3.40;99.90;;;;;;4932250;28;20038;-47
2024/03/06 02:59:27;;;;;;;11.30;6.30;;;3.50;99.90;;;;;;4897085;28;20061;-48
2024/03/06 03:01:53;;;;;;;9.27;6.35;;;3.50;99.90;;;;;;4893282;28;20037;-46
2024/03/06 03:04:18;;;;;;;9.73;5.60;;;3.50;99.90;;;;;;4888061;28;21628;-45
2024/03/06 03:06:44;;;;;;;6.40;5.55;;;3.40;99.90;;;;;;4945929;28;20037;-44
2024/03/06 03:09:11;;;;;;;7.72;5.45;;;3.40;99.90;;;;;;4933806;28;20577;-44
2024/03/06 03:11:38;;;;;;;7.30;5.57;;;3.40;99.90;;;;;;4886782;28;20029;-45
2024/03/06 03:14:03;;;;;;;10.40;5.95;;;3.40;99.90;;;;;;4895110;28;20028;-47
2024/03/06 03:16:29;;;;;;;8.43;5.50;;;3.50;99.90;;;;;;4886698;28;20410;-44
2024/03/06 03:18:56;;;;;;;7.63;5.40;;;3.50;99.90;;;;;;4929624;28;20045;-54
2024/03/06 03:21:22;;;;;;;11.77;5.53;;;3.40;99.90;;;;;;4888301;28;20018;-51
2024/03/06 03:23:48;;;;;;;7.82;5.28;;;3.40;99.90;;;;;;4930220;28;20086;-45
2024/03/06 03:26:14;;;;;;;5.55;4.63;;;3.40;99.90;;;;;;4890070;28;20585;-44
2024/03/06 03:28:39;;;;;;;6.80;4.88;;;3.40;99.90;;;;;;4855662;28;20030;-47
2024/03/06 03:31:09;;;;;;;6.72;5.05;;;3.40;99.90;;;;;;4949330;28;20033;-44
2024/03/06 03:33:38;;;;;;;8.85;5.68;;;3.40;99.90;;;;;;4954827;28;22041;-44
2024/03/06 03:36:06;;;;;;;6.45;4.72;;;3.40;99.90;;;;;;4983495;28;20033;-47
2024/03/06 03:38:32;;;;;;;8.45;5.40;;;3.40;99.90;;;;;;4944422;28;20581;-54
2024/03/06 03:40:58;;;;;;;8.63;5.22;;;3.40;99.90;;;;;;4942161;28;20028;-48
2024/03/06 03:43:24;;;;;;;9.00;4.88;;;3.40;99.90;;;;;;4924381;28;20025;-46
2024/03/06 03:45:49;;;;;;;7.82;4.90;;;3.40;99.90;;;;;;4917289;28;20022;-47
2024/03/06 03:48:17;;;;;;;6.68;4.70;;;3.40;99.90;;;;;;4952980;28;20429;-51
2024/03/06 03:50:42;;;;;;;8.02;5.47;;;3.40;99.90;;;;;;4974441;23;20045;-44
2024/03/06 03:53:08;;;;;;;6.97;5.18;;;3.40;99.90;;;;;;4965202;28;20375;-42
2024/03/06 03:55:33;;;;;;;6.60;5.10;;;3.40;99.90;;;;;;4945180;28;20025;-41
2024/03/06 03:57:59;;;;;;;8.88;5.60;;;3.40;99.90;;;;;;4958228;28;20034;-44
2024/03/06 04:00:24;;;;;;;9.70;6.43;;;3.40;99.90;;;;;;4943026;28;20090;-43
2024/03/06 04:02:50;;;;;;;7.53;5.35;;;3.40;99.90;;;;;;4980095;28;22086;-43
2024/03/06 04:05:15;;;;;;;6.07;5.13;;;3.40;99.90;;;;;;4963042;28;20026;-43
2024/03/06 04:07:41;;;;;;;6.88;5.50;;;3.30;99.90;;;;;;4967743;28;20055;-42
2024/03/06 04:10:10;;;;;;;8.75;6.10;;;3.30;99.90;;;;;;4948108;28;20026;-43
2024/03/06 04:12:35;;;;;;;8.05;5.78;;;3.30;99.90;;;;;;4955959;28;21489;-42
2024/03/06 04:15:01;;;;;;;8.38;5.60;;;3.30;99.90;;;;;;4979381;28;20163;-43
2024/03/06 04:17:26;;;;;;;6.68;5.88;;;3.40;99.90;;;;;;4960515;28;20025;-42
2024/03/06 04:19:53;;;;;;;9.05;5.97;;;3.40;99.90;;;;;;4956206;28;20548;-49
2024/03/06 04:22:19;;;;;;;8.07;5.82;;;3.40;99.90;;;;;;4966432;28;20014;-42
2024/03/06 04:24:44;;;;;;;6.25;5.10;;;3.40;99.90;;;;;;4968062;28;20076;-44
2024/03/06 04:27:10;;;;;;;7.22;5.50;;;3.40;99.90;;;;;;5007928;28;20321;-42
2024/03/06 04:29:36;;;;;;;6.32;4.78;;;3.40;99.90;;;;;;4931758;28;20444;-42
2024/03/06 04:32:01;;;;;;;7.18;5.20;;;3.40;99.90;;;;;;4959528;28;20060;-43
2024/03/06 04:34:27;;;;;;;6.93;4.88;;;3.40;99.90;;;;;;4962123;28;20112;-46
2024/03/06 04:36:53;;;;;;;6.50;4.68;;;3.40;99.90;;;;;;4947490;28;20518;-43
2024/03/06 04:39:18;;;;;;;6.30;4.90;;;3.40;99.90;;;;;;4972414;28;20033;-50
2024/03/06 04:41:44;;;;;;;8.20;4.95;;;3.40;99.90;;;;;;4964512;28;20056;-42
2024/03/06 04:44:09;;;;;;;6.95;5.30;;;3.40;99.90;;;;;;4950887;28;20033;-42
2024/03/06 04:46:35;;;;;;;8.43;6.03;;;3.40;99.90;;;;;;4967837;28;20034;-45
2024/03/06 04:49:03;;;;;;;6.95;5.55;;;3.30;99.90;;;;;;4933724;28;20055;-43
2024/03/06 04:51:28;;;;;;;7.47;5.38;;;3.30;99.90;;;;;;4948479;28;20040;-42
2024/03/06 04:53:54;;;;;;;5.78;4.63;;;3.30;99.90;;;;;;4987872;28;20045;-43
2024/03/06 04:56:20;;;;;;;8.80;5.82;;;3.30;99.90;;;;;;4945705;28;20048;-42
2024/03/06 04:58:46;;;;;;;8.63;5.50;;;3.30;99.90;;;;;;4958541;28;20056;-41
2024/03/06 05:01:12;;;;;;;8.07;5.95;;;3.30;99.90;;;;;;4938004;28;20033;-42
2024/03/06 05:03:38;;;;;;;6.47;5.03;;;3.30;99.90;;;;;;4922164;28;21042;-43
2024/03/06 05:06:05;;;;;;;7.45;5.80;;;3.30;99.90;;;;;;4965853;28;20080;-43
2024/03/06 05:08:30;;;;;;;8.55;5.10;;;3.30;99.90;;;;;;4948038;28;20029;-49
2024/03/06 05:10:56;;;;;;;7.65;5.00;;;3.30;99.90;;;;;;4940990;28;20037;-48
2024/03/06 05:13:22;;;;;;;7.25;5.25;;;3.30;99.90;;;;;;4954609;28;20069;-42
2024/03/06 05:15:47;;;;;;;7.18;4.70;;;3.30;99.90;;;;;;4916252;28;20484;-43
2024/03/06 05:18:13;;;;;;;7.63;4.85;;;3.30;99.90;;;;;;4995630;28;20056;-52
2024/03/06 05:20:39;;;;;;;8.43;5.32;;;3.20;99.90;;;;;;4940378;28;20505;-49
2024/03/06 05:23:05;;;;;;;5.90;4.63;;;3.20;99.90;;;;;;4945315;28;20048;-46
2024/03/06 05:25:30;;;;;;;7.35;4.97;;;3.10;99.90;;;;;;4955798;28;20806;-44
2024/03/06 05:27:56;;;;;;;5.72;5.13;;;3.10;99.90;;;;;;4932127;28;20036;-42
2024/03/06 05:30:22;;;;;;;5.75;4.63;;;3.10;99.90;;;;;;4937279;28;20030;-51
2024/03/06 05:32:47;;;;;;;8.35;5.40;;;3.10;99.90;;;;;;4982719;28;20025;-43
2024/03/06 05:35:13;;;;;;;6.70;5.03;;;3.00;99.90;;;;;;4940816;28;22257;-44
2024/03/06 05:37:38;;;;;;;7.63;4.85;;;3.00;99.90;;;;;;4953838;28;20096;-42
2024/03/06 05:40:05;;;;;;;7.10;4.95;;;2.90;99.90;;;;;;4918338;28;20104;-45
2024/03/06 05:42:31;;;;;;;8.73;5.55;;;2.90;99.90;;;;;;4909748;28;20517;-44
2024/03/06 05:45:04;;;;;;;7.10;5.18;;;2.90;99.90;;;;;;4995493;28;20025;-44
2024/03/06 05:47:32;;;;;;;8.10;5.07;;;2.80;99.90;;;;;;4937546;28;20399;-42
2024/03/06 05:49:59;;;;;;;7.85;4.72;;;2.80;99.90;;;;;;4947053;28;20037;-46
2024/03/06 05:52:25;;;;;;;4.68;3.97;;;2.80;99.90;;;;;;4930137;28;20497;-44
2024/03/06 05:54:50;;;;;;;7.72;4.68;;;2.70;99.90;;;;;;4902952;28;20037;-45
2024/03/06 05:57:16;;;;;;;7.63;5.03;;;2.70;99.90;;;;;;4951521;28;20476;-53
2024/03/06 05:59:42;;;;;;;6.03;4.57;;;2.70;99.90;;;;;;4950042;28;20014;-44
2024/03/06 06:02:07;;;;;;;10.77;5.30;;;2.60;99.90;;;;;;4932844;28;20033;-42
2024/03/06 06:04:33;;;;;;;5.75;4.68;;;2.60;99.90;;;;;;4936790;28;20018;-43
2024/03/06 06:06:59;;;;;;;6.35;4.57;;;2.60;99.90;;;;;;4898596;28;20045;-45
2024/03/06 06:09:24;;;;;;;6.15;5.18;;;2.50;99.90;;;;;;4902018;28;20651;-50
2024/03/06 06:11:50;;;;;;;6.53;5.05;;;2.50;99.90;;;;;;4975404;28;21197;-45
2024/03/06 06:14:16;;;;;;;7.13;4.82;;;2.40;99.90;;;;;;4927303;28;21535;-42
2024/03/06 06:16:42;;;;;;;7.85;5.47;;;2.40;99.90;;;;;;4946444;28;20504;-45
2024/03/06 06:19:08;;;;;;;6.75;4.95;;;2.40;99.90;;;;;;4907221;28;20032;-44
2024/03/06 06:21:35;;;;;;;7.10;4.40;;;2.40;99.90;;;;;;4916564;28;21020;-44
2024/03/06 06:24:03;;;;;;;6.05;4.85;;;2.30;99.90;;;;;;4966151;28;20072;-44
2024/03/06 06:26:29;;;;;;;8.63;5.32;;;2.30;99.90;;;;;;4928870;28;20510;-45
2024/03/06 06:28:57;;;;;;;8.25;5.18;;;2.30;99.90;;;;;;4879369;28;20029;-50
2024/03/06 06:31:25;;;;;;;7.40;5.03;;;2.20;99.90;;;;;;4910975;28;20460;-43
2024/03/06 06:33:51;;;;;;;6.68;5.32;;;2.20;99.90;;;;;;4922587;28;20087;-46
2024/03/06 06:36:17;;;;;;;9.15;5.78;;;2.20;99.90;;;;;;4953539;28;20032;-44
2024/03/06 06:38:43;;;;;;;7.35;5.22;;;2.20;99.90;;;;;;4975994;28;20025;-46
2024/03/06 06:41:10;;;;;;;9.93;5.65;;;2.10;99.90;;;;;;4987512;28;20025;-43
2024/03/06 06:43:36;;;;;;;9.88;6.00;;;2.10;99.90;;;;;;4959808;28;20525;-43
2024/03/06 06:46:04;;;;;;;7.55;5.35;;;2.10;99.90;;;;;;4956769;28;20033;-45
2024/03/06 06:48:30;;;;;;;12.88;5.90;;;2.20;99.90;;;;;;4942420;28;20550;-47
2024/03/06 06:50:55;;;;;;;7.90;5.28;;;2.20;99.90;;;;;;4968211;28;20060;-45
2024/03/06 06:53:21;;;;;;;7.47;5.47;;;2.20;99.90;;;;;;4980396;28;20711;-44
2024/03/06 06:55:46;;;;;;;8.32;5.20;;;2.20;99.90;;;;;;4985613;28;20033;-46
2024/03/06 06:58:12;;;;;;;7.00;5.22;;;2.20;99.90;;;;;;4987722;28;20033;-42
2024/03/06 07:00:38;;;;;;;7.43;5.82;;;2.20;99.90;;;;;;4935516;28;20087;-45
2024/03/06 07:03:04;;;;;;;8.05;5.72;;;2.20;99.90;;;;;;4965505;28;20494;-43
2024/03/06 07:05:29;;;;;;;7.60;5.30;;;2.30;99.90;;;;;;4975459;28;20033;-43
2024/03/06 07:07:57;;;;;;;8.77;5.93;;;2.30;99.90;;;;;;4954502;28;20029;-52
2024/03/06 07:10:23;;;;;;;10.20;5.85;;;2.30;99.90;;;;;;4914715;28;20120;-44
2024/03/06 07:12:48;;;;;;;11.10;6.70;;;2.40;99.90;;;;;;4943678;28;20021;-44
2024/03/06 07:15:14;;;;;;;8.38;6.10;;;2.40;99.90;;;;;;4942563;28;20468;-44
2024/03/06 07:17:40;;;;;;;7.50;5.97;;;2.40;99.90;;;;;;4962764;28;20525;-42
2024/03/06 07:20:08;;;;;;;9.23;6.15;;;2.40;99.90;;;;;;4974387;28;20036;-42
2024/03/06 07:22:33;;;;;;;7.05;5.53;;;2.50;99.90;;;;;;4983016;28;21507;-43
2024/03/06 07:25:00;;;;;;;9.43;6.07;;;2.60;99.90;;;;;;4933740;28;20021;-44
2024/03/06 07:27:27;;;;;;;8.02;5.85;;;2.60;99.90;;;;;;4955687;28;20076;-44
2024/03/06 07:29:53;;;;;;;7.68;5.40;;;2.60;99.90;;;;;;4941703;28;21483;-46
2024/03/06 07:32:19;;;;;;;6.32;5.55;;;2.70;99.90;;;;;;4969482;28;22043;-43
2024/03/06 07:34:45;;;;;;;7.25;5.55;;;2.70;99.90;;;;;;4988471;28;20026;-43
2024/03/06 07:37:10;;;;;;;7.78;5.38;;;2.70;99.90;;;;;;4980516;28;20425;-42
2024/03/06 07:39:36;;;;;;;8.85;5.95;;;2.80;99.90;;;;;;4920326;28;20021;-45
2024/03/06 07:42:02;;;;;;;7.90;5.28;;;2.80;99.90;;;;;;4962833;28;20032;-42
2024/03/06 07:44:28;;;;;;;6.55;5.65;;;2.90;99.90;;;;;;4966803;28;20017;-45
2024/03/06 07:46:54;;;;;;;8.07;4.70;;;3.00;99.90;;;;;;4986806;28;20311;-51
2024/03/06 07:49:21;;;;;;;7.68;5.20;;;3.10;99.90;;;;;;4920932;28;20048;-43
2024/03/06 07:51:47;;;;;;;7.45;5.15;;;3.20;99.90;;;;;;4962042;28;20053;-44
2024/03/06 07:54:13;;;;;;;5.90;4.40;;;3.20;99.90;;;;;;4948286;28;20180;-47
2024/03/06 07:56:39;;;;;;;6.75;4.88;;;3.20;99.90;;;;;;4925558;28;20072;-51
2024/03/06 07:59:07;;;;;;;5.68;4.45;;;3.30;99.90;;;;;;4956800;28;20028;-46
2024/03/06 08:01:33;;;;;;;7.40;4.60;;;3.40;99.90;;;;;;4972626;28;21237;-44
2024/03/06 08:03:58;;;;;;;5.63;4.32;;;3.50;99.90;;;;;;4968009;28;20025;-43
2024/03/06 08:06:25;;;;;;;8.77;5.00;;;3.60;99.90;;;;;;4931604;28;20026;-42
2024/03/06 08:08:51;;;;;;;6.80;5.13;;;3.60;99.90;;;;;;4944981;28;20032;-45
2024/03/06 08:11:17;;;;;;;7.30;4.63;;;3.70;99.90;;;;;;4958973;28;21646;-43
2024/03/06 08:13:43;;;;;;;5.97;4.53;;;3.80;99.90;;;;;;4995912;28;20030;-43
2024/03/06 08:16:09;;;;;;;6.97;5.03;;;3.90;99.90;;;;;;4973939;28;20063;-44
2024/03/06 08:18:36;;;;;;;4.97;4.28;;;4.00;99.90;;;;;;4943860;28;20045;-47
2024/03/06 08:21:03;;;;;;;5.15;4.63;;;4.10;99.90;;;;;;4931988;28;20048;-46
2024/03/06 08:23:30;;;;;;;6.78;5.22;;;4.10;99.90;;;;;;4954707;28;20073;-43
2024/03/06 08:25:56;;;;;;;5.80;4.90;;;4.20;99.90;;;;;;4983147;28;20024;-53
2024/03/06 08:28:21;;;;;;;7.70;4.80;;;4.30;99.90;;;;;;4965850;28;20060;-42
2024/03/06 08:30:47;;;;;;;9.73;5.28;;;4.40;99.90;;;;;;4972682;28;20029;-44
2024/03/06 08:33:13;;;;;;;6.43;4.63;;;4.40;99.90;;;;;;4953533;28;20528;-45
2024/03/06 08:35:39;;;;;;;5.68;3.75;;;4.50;99.90;;;;;;4955325;28;20047;-45
2024/03/06 08:38:06;;;;;;;7.28;4.43;;;4.60;99.90;;;;;;4957414;28;20033;-43
2024/03/06 08:40:32;;;;;;;6.78;4.78;;;4.60;99.90;;;;;;4995279;28;20040;-43
2024/03/06 08:42:58;;;;;;;5.97;4.55;;;4.70;99.90;;;;;;4960473;28;20072;-47
2024/03/06 08:45:23;;;;;;;5.05;4.07;;;4.80;99.90;;;;;;4954280;28;20025;-46
2024/03/06 08:47:49;;;;;;;5.97;4.18;;;5.00;99.90;;;;;;4942079;28;20101;-44
2024/03/06 08:50:16;;;;;;;5.70;4.15;;;5.10;99.90;;;;;;4944039;28;22471;-46
2024/03/06 08:52:42;;;;;;;5.38;4.68;;;5.40;99.90;;;;;;4980439;28;20366;-47
2024/03/06 08:55:08;;;;;;;6.25;4.03;;;5.70;99.90;;;;;;4948097;28;20047;-45
2024/03/06 08:57:34;;;;;;;7.00;4.07;;;5.90;99.90;;;;;;4933165;28;20033;-44
2024/03/06 09:00:00;;;;;;;5.55;4.13;;;6.10;99.90;;;;;;4975097;28;20125;-44
2024/03/06 09:02:26;;;;;;;4.85;4.10;;;6.20;99.90;;;;;;4947940;28;20077;-45
2024/03/06 09:04:55;;;;;;;7.30;4.32;;;6.40;99.90;;;;;;4989176;28;20041;-51
2024/03/06 09:07:23;;;;;;;5.43;4.05;;;6.40;99.90;;;;;;4948016;28;20461;-46
2024/03/06 09:09:52;;;;;;;5.00;4.40;;;6.40;99.90;;;;;;4964257;28;20413;-43
2024/03/06 09:12:18;;;;;;;5.50;3.85;;;6.50;99.90;;;;;;4949195;28;20053;-42
2024/03/06 09:14:44;;;;;;;5.90;4.50;;;6.60;99.90;;;;;;4937671;28;20033;-47
2024/03/06 09:17:10;;;;;;;5.53;3.75;;;6.60;99.90;;;;;;4940271;28;20025;-42
2024/03/06 09:19:36;;;;;;;5.63;4.35;;;6.70;99.90;;;;;;4957706;28;21302;-45
2024/03/06 09:22:02;;;;;;;5.28;4.50;;;6.70;99.90;;;;;;4936574;28;20628;-45
2024/03/06 09:24:28;;;;;;;6.90;4.35;;;6.80;99.90;;;;;;4918651;28;20025;-42
2024/03/06 09:26:53;;;;;;;6.75;4.53;;;6.80;99.90;;;;;;4953193;28;20033;-44
2024/03/06 09:29:20;;;;;;;4.75;3.85;;;6.70;99.90;;;;;;4937037;28;21704;-44
2024/03/06 09:31:47;;;;;;;5.55;4.10;;;6.70;99.90;;;;;;4982230;28;20117;-44
2024/03/06 09:34:13;;;;;;;5.00;3.63;;;6.70;99.90;;;;;;4984136;28;20045;-47
2024/03/06 09:36:46;;;;;;;5.50;4.28;;;6.60;99.90;;;;;;4960732;28;20091;-43
2024/03/06 09:39:12;;;;;;;5.40;4.18;;;6.70;99.90;;;;;;4966653;28;20080;-48
2024/03/06 09:41:41;;;;;;;7.07;4.25;;;6.80;99.90;;;;;;4939348;28;20039;-46
2024/03/06 09:44:07;;;;;;;5.85;4.38;;;6.90;99.90;;;;;;4949828;28;20095;-45
2024/03/06 09:46:34;;;;;;;9.10;4.57;;;7.10;99.90;;;;;;4974456;28;22445;-44
2024/03/06 09:49:01;;;;;;;5.70;4.18;;;7.30;99.90;;;;;;4978236;28;20056;-44
2024/03/06 09:51:27;;;;;;;6.05;4.53;;;7.60;99.90;;;;;;4973252;23;20236;-53
2024/03/06 09:53:53;;;;;;;5.40;3.95;;;7.80;99.90;;;;;;4933611;28;20014;-53
2024/03/06 09:56:19;;;;;;;6.07;4.32;;;7.90;99.90;;;;;;4921401;28;20038;-51
2024/03/06 09:58:45;;;;;;;4.82;3.80;;;8.00;99.90;;;;;;4965388;28;20482;-51
2024/03/06 10:01:16;;;;;;;6.45;4.18;;;8.10;99.90;;;;;;4926571;28;20120;-53
2024/03/06 10:03:42;;;;;;;5.60;4.38;;;7.90;99.90;;;;;;4919179;28;20079;-53
2024/03/06 10:06:08;;;;;;;6.90;4.68;;;7.80;99.90;;;;;;4918465;28;20046;-54
2024/03/06 10:08:34;;;;;;;7.47;4.63;;;7.80;99.90;;;;;;4918250;28;20113;-51
2024/03/06 10:11:00;;;;;;;5.32;3.85;;;7.70;99.90;;;;;;4918020;28;20018;-56
2024/03/06 10:13:26;;;;;;;5.70;3.70;;;7.60;99.90;;;;;;4972934;28;20050;-50
2024/03/06 10:16:01;;;;;;;5.20;4.30;;;7.40;99.90;;;;;;4926456;28;21516;-50
2024/03/06 10:18:32;;;;;;;5.15;4.40;;;7.40;99.90;;;;;;4915444;28;20076;-52
2024/03/06 10:20:58;;;;;;;5.53;4.40;;;7.30;99.90;;;;;;4906640;28;20031;-53
2024/03/06 10:23:24;;;;;;;5.75;4.45;;;7.30;99.90;;;;;;4928348;28;20040;-54
2024/03/06 10:25:52;;;;;;;7.68;5.05;;;7.30;99.90;;;;;;4968461;28;20084;-52
2024/03/06 10:28:20;;;;;;;7.70;4.70;;;7.20;99.90;;;;;;4917501;28;20034;-58
2024/03/06 10:30:46;;;;;;;5.80;4.63;;;7.30;99.90;;;;;;4951128;28;20026;-53
2024/03/06 10:33:13;;;;;;;5.20;3.85;;;7.30;99.90;;;;;;4912588;28;20101;-52
2024/03/06 10:35:44;;;;;;;7.25;4.65;;;7.50;99.90;;;;;;4904791;28;20637;-54
2024/03/06 10:38:13;;;;;;;5.82;4.60;;;7.50;99.90;;;;;;4892937;28;20164;-54
2024/03/06 10:40:41;;;;;;;6.70;4.40;;;7.50;99.90;;;;;;4954648;28;20037;-52
2024/03/06 10:43:08;;;;;;;5.20;4.22;;;7.40;99.90;;;;;;4919854;28;20029;-51
2024/03/06 10:45:49;;;;;;;6.07;4.00;;;7.40;99.90;;;;;;4924244;28;20450;-59
2024/03/06 10:48:17;;;;;;;6.05;4.00;;;7.40;99.90;;;;;;4927832;28;20037;-50
2024/03/06 10:50:45;;;;;;;7.97;3.75;;;7.50;99.90;;;;;;4913104;28;20117;-50
2024/03/06 10:53:12;;;;;;;6.97;4.47;;;7.70;99.90;;;;;;4928095;28;20042;-51
2024/03/06 10:55:38;;;;;;;4.75;3.97;;;8.00;99.90;;;;;;4935600;28;21220;-52
2024/03/06 10:58:11;;;;;;;6.25;5.03;;;8.20;99.90;;;;;;4952462;28;20079;-50
2024/03/06 11:00:48;;;;;;;5.88;4.22;;;8.40;99.90;;;;;;4887387;28;20101;-54
2024/03/06 11:03:14;;;;;;;5.90;4.32;;;8.60;99.90;;;;;;4904097;28;20096;-57
2024/03/06 11:05:41;;;;;;;5.35;3.88;;;8.70;99.90;;;;;;4884380;28;20030;-52
2024/03/06 11:08:11;;;;;;;5.65;3.97;;;8.80;99.90;;;;;;4885136;28;20096;-53
2024/03/06 11:10:38;;;;;;;5.38;3.95;;;8.80;99.90;;;;;;4949611;28;22366;-51
2024/03/06 11:13:29;;;;;;;6.63;3.90;;;8.70;99.90;;;;;;4914276;28;20049;-50
2024/03/06 11:15:58;;;;;;;5.93;4.70;;;8.70;99.90;;;;;;4920847;28;20108;-53
2024/03/06 11:18:30;;;;;;;6.55;4.35;;;8.80;99.90;;;;;;4897821;28;20033;-50
2024/03/06 11:21:01;;;;;;;4.40;3.67;;;8.50;99.90;;;;;;4903110;28;20441;-51
2024/03/06 11:23:27;;;;;;;5.75;4.07;;;8.50;99.90;;;;;;4882208;28;20030;-50
2024/03/06 11:25:55;;;;;;;6.25;4.25;;;8.60;99.90;;;;;;4930676;28;20033;-59
2024/03/06 11:28:21;;;;;;;5.82;4.40;;;8.70;99.90;;;;;;4890053;28;20100;-54
2024/03/06 11:30:48;;;;;;;6.53;4.22;;;8.70;99.90;;;;;;4931374;28;20033;-51
2024/03/06 11:33:17;;;;;;;5.82;4.43;;;8.60;99.90;;;;;;4921748;28;20481;-52
2024/03/06 11:35:48;;;;;;;5.10;3.97;;;8.60;99.90;;;;;;4873023;28;20072;-53
2024/03/06 11:38:17;;;;;;;8.02;5.05;;;8.60;99.90;;;;;;4882372;28;21589;-51
2024/03/06 11:40:43;;;;;;;5.60;4.00;;;8.70;99.90;;;;;;4948137;28;20037;-50
2024/03/06 11:43:27;;;;;;;7.95;4.95;;;8.70;99.90;;;;;;4908367;28;20014;-50
2024/03/06 11:45:53;;;;;;;7.85;5.05;;;8.80;99.90;;;;;;4898601;28;21613;-51
2024/03/06 11:48:21;;;;;;;7.40;5.18;;;8.90;99.90;;;;;;4917166;28;20125;-52
2024/03/06 11:50:47;;;;;;;7.53;5.03;;;8.50;99.90;;;;;;4857729;28;20033;-56
2024/03/06 11:53:14;;;;;;;6.32;4.55;;;8.40;99.90;;;;;;4884743;28;21730;-55
2024/03/06 11:55:40;;;;;;;9.00;4.35;;;8.40;99.90;;;;;;4942632;28;20052;-50
2024/03/06 11:58:07;;;;;;;7.45;5.55;;;8.40;99.90;;;;;;4908929;28;20033;-50
2024/03/06 12:00:33;;;;;;;7.13;5.00;;;8.40;99.90;;;;;;4909768;28;20026;-59
2024/03/06 12:02:59;;;;;;;7.18;4.70;;;8.40;99.90;;;;;;4970068;28;20033;-50
2024/03/06 12:05:25;;;;;;;6.55;5.00;;;8.50;99.90;;;;;;4961668;28;20040;-51
2024/03/06 12:07:51;;;;;;;6.00;4.68;;;8.60;99.90;;;;;;4920775;28;20502;-51
2024/03/06 12:10:17;;;;;;;6.55;4.65;;;8.50;99.90;;;;;;4965498;28;20033;-59
2024/03/06 12:12:44;;;;;;;5.40;4.50;;;8.60;99.90;;;;;;4973614;28;20049;-48
2024/03/06 12:15:11;;;;;;;6.00;4.20;;;8.60;99.90;;;;;;4956704;28;20402;-48
2024/03/06 12:17:51;;;;;;;5.28;4.28;;;8.70;99.90;;;;;;4964291;28;20026;-50
2024/03/06 12:20:17;;;;;;;5.57;4.68;;;8.70;99.90;;;;;;4962543;28;20033;-52
2024/03/06 12:22:53;;;;;;;5.80;4.30;;;8.50;99.90;;;;;;4936836;28;21378;-55
2024/03/06 12:25:24;;;;;;;6.15;4.57;;;8.50;99.90;;;;;;4957021;28;20037;-52
2024/03/06 12:27:51;;;;;;;6.68;4.85;;;8.40;99.90;;;;;;4972017;28;20082;-52
2024/03/06 12:30:20;;;;;;;6.88;4.57;;;8.40;99.90;;;;;;4971757;28;20057;-52
2024/03/06 12:33:06;;;;;;;7.45;5.35;;;8.30;99.90;;;;;;4918292;28;20105;-54
2024/03/06 12:35:32;;;;;;;7.13;4.10;;;8.20;99.90;;;;;;4943071;28;20405;-53
2024/03/06 12:37:57;;;;;;;5.72;4.35;;;8.20;99.90;;;;;;4922223;28;20046;-50
2024/03/06 12:40:24;;;;;;;5.43;4.60;;;8.20;99.90;;;;;;4944893;28;20033;-54
2024/03/06 12:42:52;;;;;;;8.85;5.95;;;8.10;99.90;;;;;;4969953;28;20108;-52
2024/03/06 12:45:18;;;;;;;7.78;5.40;;;8.00;99.90;;;;;;4972793;28;20023;-54
2024/03/06 12:47:45;;;;;;;6.28;4.65;;;7.80;99.90;;;;;;4933171;28;20106;-52
2024/03/06 12:50:11;;;;;;;5.68;4.40;;;7.70;99.90;;;;;;4946585;28;20033;-50
2024/03/06 12:52:37;;;;;;;6.72;4.53;;;7.70;99.90;;;;;;4906468;28;21145;-48